Newman, Australia
Current Conditions -  °F | °C
As of 11:00 AM on Friday 28 Nov 2014 (Local Time) from YNWN Reporting Station
Clear Clear  
Wind Chill: 91°   Ceiling: Unl
Heat Index: 93°   Visibility: 6mi
Dew Point: 64°   Wind: 7mph
Humidity: 41%   Direction: 270°W
Pressure: 29.88"   Gusts: NA
Location:  23.36°S, 119.74°E
Report Text: YNWN 280300Z AUTO 27006KT 9999 // NCD 33/18 Q1012
Loading
Personal Weather Stations






























Interactive Weather Map New forecast layout! Learn more

10-Day Weather Forecast

Advertisements
Track Severe Weather on mobile